createdAt,value
2018-08-16T00:00:10.300Z,9.73
2018-08-16T00:02:38.603Z,10.95
2018-08-16T00:05:06.880Z,10.70
2018-08-16T00:07:35.057Z,10.82
2018-08-16T00:10:19.957Z,11.53
2018-08-16T00:12:49.155Z,11.08
2018-08-16T00:15:18.324Z,10.28
2018-08-16T00:17:54.219Z,11.00
2018-08-16T00:20:22.343Z,10.23
2018-08-16T00:22:50.398Z,11.20
2018-08-16T00:25:18.693Z,11.60
2018-08-16T00:27:46.747Z,12.07
2018-08-16T00:30:21.794Z,11.70
2018-08-16T00:32:54.169Z,10.73
2018-08-16T00:35:27.229Z,10.20
2018-08-16T00:37:59.991Z,9.30
2018-08-16T00:40:31.920Z,10.20
2018-08-16T00:43:04.068Z,10.53
2018-08-16T00:45:35.631Z,9.90
2018-08-16T00:48:03.754Z,12.20
2018-08-16T00:50:31.773Z,12.37
2018-08-16T00:52:59.868Z,12.60
2018-08-16T00:55:27.938Z,13.40
2018-08-16T00:57:56.099Z,12.87
2018-08-16T01:00:24.260Z,9.53
2018-08-16T01:02:57.413Z,8.00
2018-08-16T01:05:27.625Z,9.18
2018-08-16T01:07:55.648Z,8.25
2018-08-16T01:10:26.111Z,8.65
2018-08-16T01:12:56.632Z,9.50
2018-08-16T01:15:24.710Z,9.15
2018-08-16T01:17:52.761Z,9.45
2018-08-16T01:20:21.162Z,10.20
2018-08-16T01:22:49.228Z,10.45
2018-08-16T01:25:17.289Z,11.57
2018-08-16T01:27:45.587Z,11.83
2018-08-16T01:30:13.731Z,10.90
2018-08-16T01:32:42.073Z,9.40
2018-08-16T01:35:10.085Z,10.30
2018-08-16T01:37:38.892Z,10.63
2018-08-16T01:40:07.612Z,12.00
2018-08-16T01:42:36.622Z,12.30
2018-08-16T01:45:05.097Z,11.80
2018-08-16T01:47:33.116Z,12.88
2018-08-16T01:50:01.313Z,13.37
2018-08-16T01:52:29.356Z,12.68
2018-08-16T01:54:57.567Z,13.20
2018-08-16T01:57:25.595Z,13.32
2018-08-16T01:59:53.715Z,13.73
2018-08-16T02:02:21.864Z,13.50
2018-08-16T02:04:49.966Z,13.27
2018-08-16T02:07:18.030Z,11.90
2018-08-16T02:09:46.151Z,12.70
2018-08-16T02:12:14.184Z,12.73
2018-08-16T02:14:42.315Z,12.60
2018-08-16T02:17:10.532Z,12.90
2018-08-16T02:19:38.678Z,12.90
2018-08-16T02:22:06.998Z,13.62
2018-08-16T02:24:35.129Z,12.58
2018-08-16T02:27:03.424Z,13.10
2018-08-16T02:29:38.710Z,12.80
2018-08-16T02:32:06.713Z,13.67
2018-08-16T02:34:37.219Z,12.98
2018-08-16T02:37:05.701Z,12.37
2018-08-16T02:39:34.476Z,11.83
2018-08-16T02:42:02.726Z,14.38
2018-08-16T02:44:30.765Z,14.30
2018-08-16T02:47:01.631Z,14.70
2018-08-16T02:49:32.320Z,16.12
2018-08-16T02:52:03.316Z,17.90
2018-08-16T02:54:33.700Z,16.90
2018-08-16T02:57:06.702Z,16.87
2018-08-16T02:59:39.469Z,15.18
2018-08-16T03:02:10.956Z,15.90
2018-08-16T03:04:39.264Z,14.85
2018-08-16T03:07:07.937Z,14.17
2018-08-16T03:09:36.759Z,10.00
2018-08-16T03:12:11.043Z,10.38
2018-08-16T03:14:44.184Z,11.40
2018-08-16T03:17:22.468Z,11.43
2018-08-16T03:19:50.511Z,12.03
2018-08-16T03:22:18.811Z,13.50
2018-08-16T03:24:46.974Z,15.68
2018-08-16T03:27:15.136Z,14.55
2018-08-16T03:29:43.523Z,14.85
2018-08-16T03:32:11.516Z,16.30
2018-08-16T03:34:39.544Z,16.97
2018-08-16T03:37:07.751Z,16.10
2018-08-16T03:39:35.891Z,15.48
2018-08-16T03:42:04.105Z,15.30
2018-08-16T03:44:32.166Z,13.50
2018-08-16T03:47:00.225Z,12.90
2018-08-16T03:49:28.299Z,15.35
2018-08-16T03:51:56.516Z,15.70
2018-08-16T03:54:24.656Z,16.75
2018-08-16T03:56:52.713Z,16.82
2018-08-16T03:59:20.799Z,16.33
2018-08-16T04:01:48.873Z,13.85
2018-08-16T04:04:16.961Z,10.82
2018-08-16T04:06:45.112Z,12.70
2018-08-16T04:09:13.202Z,10.27
2018-08-16T04:11:41.355Z,13.48
2018-08-16T04:14:09.450Z,13.00
2018-08-16T04:16:37.504Z,15.03
2018-08-16T04:19:05.695Z,16.20
2018-08-16T04:21:33.886Z,17.00
2018-08-16T04:24:01.921Z,17.92
2018-08-16T04:26:30.016Z,17.12
2018-08-16T04:28:58.196Z,16.35
2018-08-16T04:31:26.376Z,16.90
2018-08-16T04:33:54.523Z,16.20
2018-08-16T04:36:22.764Z,15.53
2018-08-16T04:38:50.872Z,15.98
2018-08-16T04:41:18.982Z,14.75
2018-08-16T04:43:47.037Z,15.18
2018-08-16T04:46:15.228Z,13.50
2018-08-16T04:48:43.376Z,13.80
2018-08-16T04:51:11.579Z,13.68
2018-08-16T04:53:39.623Z,14.85
2018-08-16T04:56:07.800Z,14.00
2018-08-16T04:58:35.899Z,13.32
2018-08-16T05:01:04.039Z,11.70
2018-08-16T05:03:32.141Z,13.85
2018-08-16T05:06:00.394Z,12.18
2018-08-16T05:08:28.509Z,12.37
2018-08-16T05:10:56.665Z,11.10
2018-08-16T05:13:24.764Z,12.33
2018-08-16T05:15:52.788Z,11.73
2018-08-16T05:18:20.883Z,10.30
2018-08-16T05:20:48.945Z,12.03
2018-08-16T05:23:17.027Z,11.20
2018-08-16T05:25:45.179Z,12.25
2018-08-16T05:28:13.392Z,12.35
2018-08-16T05:30:41.451Z,12.00
2018-08-16T05:33:09.711Z,11.33
2018-08-16T05:35:38.012Z,11.00
2018-08-16T05:38:06.174Z,12.15
2018-08-16T05:40:34.259Z,11.10
2018-08-16T05:43:02.483Z,10.78
2018-08-16T05:45:30.517Z,11.10
2018-08-16T05:47:58.792Z,10.77
2018-08-16T05:50:26.940Z,11.00
2018-08-16T05:52:55.045Z,11.60
2018-08-16T05:55:23.092Z,11.20
2018-08-16T05:57:51.186Z,10.70
2018-08-16T06:00:19.448Z,10.97
2018-08-16T06:02:47.531Z,11.70
2018-08-16T06:05:15.559Z,10.80
2018-08-16T06:07:43.681Z,9.48
2018-08-16T06:10:11.951Z,9.60
2018-08-16T06:12:40.125Z,9.50
2018-08-16T06:15:09.448Z,10.63
2018-08-16T06:17:37.787Z,8.90
2018-08-16T06:20:08.270Z,8.38
2018-08-16T06:22:36.707Z,8.30
2018-08-16T06:25:06.331Z,8.65
2018-08-16T06:27:34.381Z,14.73
2018-08-16T06:30:02.581Z,9.10
2018-08-16T06:32:30.623Z,9.70
2018-08-16T06:34:58.836Z,9.30
2018-08-16T06:37:27.119Z,9.45
2018-08-16T06:39:55.152Z,9.40
2018-08-16T06:42:23.249Z,9.58
2018-08-16T06:44:51.409Z,10.20
2018-08-16T06:47:19.508Z,8.83
2018-08-16T06:49:47.560Z,9.28
2018-08-16T06:52:15.759Z,10.45
2018-08-16T06:54:43.824Z,10.00
2018-08-16T06:57:12.084Z,9.83
2018-08-16T06:59:40.173Z,9.90
2018-08-16T07:02:08.312Z,9.70
2018-08-16T07:04:36.539Z,9.23
2018-08-16T07:07:04.764Z,9.30
2018-08-16T07:09:32.960Z,9.60
2018-08-16T07:12:01.215Z,8.38
2018-08-16T07:14:29.407Z,9.10
2018-08-16T07:16:57.639Z,8.15
2018-08-16T07:19:25.706Z,8.33
2018-08-16T07:21:53.746Z,8.50
2018-08-16T07:24:21.893Z,8.80
2018-08-16T07:26:50.085Z,8.48
2018-08-16T07:29:18.180Z,8.58
2018-08-16T07:31:46.230Z,7.80
2018-08-16T07:34:14.338Z,8.40
2018-08-16T07:36:42.608Z,7.28
2018-08-16T07:39:11.577Z,7.80
2018-08-16T07:41:39.775Z,7.42
2018-08-16T07:44:08.173Z,7.28
2018-08-16T07:46:36.240Z,7.60
2018-08-16T07:49:04.272Z,7.00
2018-08-16T07:51:32.577Z,6.97
2018-08-16T07:54:00.780Z,6.47
2018-08-16T07:56:28.937Z,5.72
2018-08-16T07:58:56.984Z,6.30
2018-08-16T08:01:25.078Z,5.58
2018-08-16T08:03:53.245Z,5.80
2018-08-16T08:06:21.537Z,8.87
2018-08-16T08:08:49.652Z,8.28
2018-08-16T08:11:17.878Z,4.62
2018-08-16T08:13:46.065Z,5.22
2018-08-16T08:16:14.211Z,6.08
2018-08-16T08:18:42.316Z,5.40
2018-08-16T08:21:10.887Z,5.80
2018-08-16T08:23:38.959Z,6.00
2018-08-16T08:26:07.403Z,6.05
2018-08-16T08:28:35.521Z,5.50
2018-08-16T08:31:03.684Z,7.73
2018-08-16T08:33:31.747Z,6.00
2018-08-16T08:36:11.925Z,7.25
2018-08-16T08:38:40.027Z,6.87
2018-08-16T08:41:08.287Z,7.25
2018-08-16T08:43:47.908Z,8.30
2018-08-16T08:46:16.105Z,10.80
2018-08-16T08:48:44.150Z,8.50
2018-08-16T08:51:12.259Z,26.00
2018-08-16T08:57:40.344Z,8.23
2018-08-16T09:00:08.660Z,35.35
2018-08-16T09:02:36.796Z,16.90
2018-08-16T09:05:05.992Z,30.45
2018-08-16T09:07:34.071Z,18.27
2018-08-16T09:11:16.979Z,6.15
2018-08-16T09:13:58.505Z,5.63
2018-08-16T09:16:28.341Z,5.37
2018-08-16T09:18:56.896Z,5.08
2018-08-16T09:21:25.329Z,6.03
2018-08-16T09:23:53.643Z,5.20
2018-08-16T09:26:27.624Z,5.67
2018-08-16T09:28:55.805Z,5.20
2018-08-16T09:31:35.171Z,6.20
2018-08-16T09:34:16.252Z,5.00
2018-08-16T09:36:44.419Z,4.90
2018-08-16T09:39:12.601Z,5.28
2018-08-16T09:41:40.988Z,4.80
2018-08-16T09:44:09.148Z,4.63
2018-08-16T09:46:50.464Z,5.45
2018-08-16T09:49:18.505Z,4.58
2018-08-16T09:51:47.232Z,4.95
2018-08-16T09:54:15.320Z,5.37
2018-08-16T09:56:44.228Z,5.60
2018-08-16T09:59:12.621Z,5.83
2018-08-16T10:01:40.942Z,5.30
2018-08-16T10:04:09.439Z,5.08
2018-08-16T10:06:38.765Z,5.58
2018-08-16T10:09:09.066Z,4.70
2018-08-16T10:11:37.221Z,4.97
2018-08-16T10:14:05.480Z,5.45
2018-08-16T10:16:34.176Z,4.53
2018-08-16T10:19:02.540Z,5.15
2018-08-16T10:21:30.748Z,5.00
2018-08-16T10:23:59.101Z,4.53
2018-08-16T10:26:27.188Z,4.30
2018-08-16T10:28:55.253Z,4.92
2018-08-16T10:31:23.542Z,4.95
2018-08-16T10:33:51.811Z,4.83
2018-08-16T10:36:19.972Z,5.10
2018-08-16T10:38:48.076Z,4.40
2018-08-16T10:41:16.118Z,6.20
2018-08-16T10:43:44.333Z,4.95
2018-08-16T10:46:12.540Z,3.77
2018-08-16T10:48:40.672Z,4.83
2018-08-16T10:51:08.864Z,4.80
2018-08-16T10:53:37.228Z,4.45
2018-08-16T10:56:05.770Z,6.85
2018-08-16T10:58:33.903Z,5.28
2018-08-16T11:01:02.036Z,4.30
2018-08-16T15:28:56.761Z,3.90
2018-08-16T15:31:25.062Z,4.30
2018-08-16T15:33:53.268Z,3.10
2018-08-16T15:36:21.363Z,3.67
2018-08-16T15:38:49.406Z,3.63
2018-08-16T15:41:17.686Z,3.40
2018-08-16T15:43:45.752Z,3.20
2018-08-16T15:46:13.799Z,2.80
2018-08-16T15:48:44.126Z,3.40
2018-08-16T15:51:12.435Z,3.40
2018-08-16T15:53:43.156Z,3.10
2018-08-16T15:56:13.921Z,3.20
2018-08-16T15:58:44.825Z,6.00
2018-08-16T16:01:14.162Z,2.90
2018-08-16T16:03:42.576Z,3.43
2018-08-16T16:06:10.780Z,2.83
2018-08-16T16:08:38.976Z,3.90
2018-08-16T16:11:07.168Z,4.00
2018-08-16T16:13:35.608Z,2.60
2018-08-16T16:16:03.829Z,4.43
2018-08-16T16:18:32.112Z,3.90
2018-08-16T16:21:00.379Z,3.33
2018-08-16T16:23:28.825Z,2.80
2018-08-16T16:25:56.928Z,2.90
2018-08-16T16:28:25.026Z,2.93
2018-08-16T16:30:53.223Z,2.93
2018-08-16T16:33:21.323Z,3.07
2018-08-16T16:35:49.527Z,3.67
2018-08-16T16:38:17.936Z,3.17
2018-08-16T16:40:46.147Z,3.40
2018-08-16T16:43:14.660Z,5.87
2018-08-16T16:45:42.949Z,3.30
2018-08-16T16:48:11.000Z,4.43
2018-08-16T16:50:39.032Z,3.10
2018-08-16T16:53:07.215Z,2.93
2018-08-16T16:55:35.240Z,3.50
2018-08-16T16:58:03.418Z,3.20
2018-08-16T17:00:31.453Z,3.57
2018-08-16T17:02:59.664Z,3.40
2018-08-16T17:05:27.813Z,3.20
2018-08-16T17:07:55.926Z,3.70
2018-08-16T17:10:24.087Z,4.20
2018-08-16T17:12:52.477Z,4.70
2018-08-16T17:15:20.736Z,3.30
2018-08-16T17:17:48.924Z,3.03
2018-08-16T17:20:17.084Z,3.40
2018-08-16T17:22:45.164Z,3.10
2018-08-16T17:25:13.210Z,3.47
2018-08-16T17:27:41.315Z,4.50
2018-08-16T17:30:09.871Z,3.50
2018-08-16T17:32:37.978Z,3.80
2018-08-16T17:35:06.164Z,3.43
2018-08-16T17:37:34.206Z,3.67
2018-08-16T17:40:02.516Z,3.10
2018-08-16T17:42:30.661Z,3.03
2018-08-16T17:44:58.759Z,2.80
2018-08-16T17:47:26.912Z,3.47
2018-08-16T17:49:55.005Z,3.37
2018-08-16T17:52:23.188Z,3.40
2018-08-16T17:54:51.227Z,3.80
2018-08-16T17:57:19.320Z,3.60
2018-08-16T17:59:47.384Z,3.07
2018-08-16T18:02:15.476Z,3.23
2018-08-16T18:04:43.524Z,2.70
2018-08-16T18:07:11.716Z,3.67
2018-08-16T18:09:39.868Z,3.63
2018-08-16T18:12:07.960Z,3.93
